createdAt,value
2019-03-27T00:01:30.486Z,100855.91
2019-03-27T00:04:02.046Z,100847.48
2019-03-27T00:06:33.584Z,100851.20
2019-03-27T00:09:05.774Z,100852.05
2019-03-27T00:11:37.019Z,100850.55
2019-03-27T00:14:08.265Z,100850.55
2019-03-27T00:16:40.859Z,100842.01
2019-03-27T00:19:12.403Z,100845.71
2019-03-27T00:21:43.747Z,100839.19
2019-03-27T00:24:15.203Z,100839.63
2019-03-27T00:26:46.554Z,100836.92
2019-03-27T00:29:18.003Z,100840.54
2019-03-27T00:31:49.368Z,100834.36
2019-03-27T00:34:20.913Z,100838.09
2019-03-27T00:36:52.374Z,100834.16
2019-03-27T00:39:23.746Z,100833.00
2019-03-27T00:41:55.270Z,100826.58
2019-03-27T00:44:27.820Z,100827.34
2019-03-27T00:46:59.974Z,100828.13
2019-03-27T00:49:31.473Z,100827.22
2019-03-27T00:52:02.931Z,100819.25
2019-03-27T00:54:34.175Z,100823.72
2019-03-27T00:57:05.635Z,100829.16
2019-03-27T00:59:37.081Z,100816.07
2019-03-27T01:02:08.332Z,100817.25
2019-03-27T01:04:39.784Z,100822.64
2019-03-27T01:07:11.125Z,100824.40
2019-03-27T01:09:42.405Z,100824.31
2019-03-27T01:12:13.837Z,100826.38
2019-03-27T01:14:44.994Z,100823.28
2019-03-27T01:17:16.439Z,100823.05
2019-03-27T01:19:47.686Z,100829.83
2019-03-27T01:22:19.038Z,100824.94
2019-03-27T01:24:50.375Z,100820.44
2019-03-27T01:27:21.729Z,100820.75
2019-03-27T01:29:53.194Z,100818.22
2019-03-27T01:32:24.446Z,100817.59
2019-03-27T01:34:55.696Z,100821.39
2019-03-27T01:37:27.147Z,100822.98
2019-03-27T01:39:58.492Z,100826.86
2019-03-27T01:42:30.109Z,100826.79
2019-03-27T01:45:01.713Z,100825.33
2019-03-27T01:47:33.164Z,100825.55
2019-03-27T01:50:06.570Z,100822.09
2019-03-27T01:52:38.728Z,100827.91
2019-03-27T01:55:10.180Z,100833.55
2019-03-27T01:57:41.527Z,100827.34
2019-03-27T02:00:13.352Z,100837.48
2019-03-27T02:02:45.866Z,100836.72
2019-03-27T02:05:17.119Z,100835.02
2019-03-27T02:07:48.443Z,100843.74
2019-03-27T02:10:20.122Z,100843.34
2019-03-27T02:12:51.478Z,100838.75
2019-03-27T02:15:22.621Z,100841.95
2019-03-27T02:17:53.768Z,100842.48
2019-03-27T02:20:25.225Z,100836.11
2019-03-27T02:22:56.468Z,100836.64
2019-03-27T02:25:27.823Z,100832.42
2019-03-27T02:27:59.190Z,100827.76
2019-03-27T02:30:30.511Z,100832.78
2019-03-27T02:33:01.925Z,100830.63
2019-03-27T02:35:33.217Z,100832.01
2019-03-27T02:38:04.614Z,100831.56
2019-03-27T02:40:35.945Z,100837.65
2019-03-27T02:43:07.278Z,100836.02
2019-03-27T02:45:38.632Z,100833.95
2019-03-27T02:48:13.818Z,100836.10
2019-03-27T02:50:43.302Z,100844.50
2019-03-27T02:53:14.626Z,100845.91
2019-03-27T02:55:47.205Z,100847.73
2019-03-27T02:58:18.670Z,100841.77
2019-03-27T03:00:49.913Z,100846.96
2019-03-27T03:03:21.267Z,100838.84
2019-03-27T03:05:52.723Z,100838.55
2019-03-27T03:08:24.168Z,100832.59
2019-03-27T03:10:55.317Z,100836.48
2019-03-27T03:13:26.558Z,100839.20
2019-03-27T03:15:57.946Z,100848.73
2019-03-27T03:18:29.372Z,100840.57
2019-03-27T03:21:00.638Z,100842.84
2019-03-27T03:23:31.981Z,100841.66
2019-03-27T03:26:03.518Z,100856.86
2019-03-27T03:28:34.765Z,100843.80
2019-03-27T03:31:06.052Z,100846.66
2019-03-27T03:33:37.388Z,100850.35
2019-03-27T03:36:08.816Z,100851.13
2019-03-27T03:38:40.163Z,100856.05
2019-03-27T03:41:11.627Z,100859.66
2019-03-27T03:43:43.064Z,100847.78
2019-03-27T03:46:14.629Z,100865.60
2019-03-27T03:48:46.783Z,100862.16
2019-03-27T03:51:18.354Z,100868.22
2019-03-27T03:53:49.807Z,100863.55
2019-03-27T03:56:21.264Z,100870.45
2019-03-27T03:58:52.821Z,100869.50
2019-03-27T04:01:24.376Z,100867.39
2019-03-27T04:03:56.953Z,100862.27
2019-03-27T04:06:28.306Z,100869.64
2019-03-27T04:08:59.744Z,100867.83
2019-03-27T04:11:31.104Z,100864.72
2019-03-27T04:14:02.357Z,100878.19
2019-03-27T04:16:33.699Z,100877.48
2019-03-27T04:19:05.278Z,100880.27
2019-03-27T04:21:36.822Z,100867.86
2019-03-27T04:24:08.081Z,100864.95
2019-03-27T04:26:39.420Z,100866.80
2019-03-27T04:29:10.871Z,100869.94
2019-03-27T04:31:42.122Z,100872.46
2019-03-27T04:34:13.387Z,100874.30
2019-03-27T04:36:44.817Z,100870.48
2019-03-27T04:39:16.172Z,100872.67
2019-03-27T04:41:47.521Z,100874.42
2019-03-27T04:44:19.090Z,100872.17
2019-03-27T04:46:50.832Z,100871.34
2019-03-27T04:49:22.286Z,100866.93
2019-03-27T04:51:53.740Z,100868.21
2019-03-27T04:54:27.018Z,100868.19
2019-03-27T04:56:58.080Z,100875.52
2019-03-27T04:59:29.333Z,100869.25
2019-03-27T05:02:00.680Z,100869.88
2019-03-27T05:04:32.439Z,100873.11
2019-03-27T05:07:03.583Z,100871.70
2019-03-27T05:09:34.941Z,100877.84
2019-03-27T05:12:06.392Z,100873.98
2019-03-27T05:14:37.839Z,100871.71
2019-03-27T05:17:09.010Z,100874.09
2019-03-27T05:19:40.448Z,100879.93
2019-03-27T05:22:11.686Z,100875.95
2019-03-27T05:24:42.971Z,100871.09
2019-03-27T05:27:14.286Z,100869.03
2019-03-27T05:29:45.631Z,100877.20
2019-03-27T05:32:17.298Z,100868.56
2019-03-27T05:34:48.648Z,100866.05
2019-03-27T05:37:20.001Z,100863.41
2019-03-27T05:39:51.452Z,100864.68
2019-03-27T05:42:22.604Z,100864.81
2019-03-27T05:44:55.594Z,100863.13
2019-03-27T05:47:26.834Z,100867.19
2019-03-27T05:49:58.083Z,100874.19
2019-03-27T05:52:29.526Z,100869.72
2019-03-27T05:55:00.983Z,100872.77
2019-03-27T05:57:32.546Z,100868.59
2019-03-27T06:00:05.033Z,100867.55
2019-03-27T06:02:36.203Z,100858.81
2019-03-27T06:05:07.509Z,100860.34
2019-03-27T06:07:38.864Z,100863.73
2019-03-27T06:10:10.211Z,100864.12
2019-03-27T06:12:41.523Z,100870.69
2019-03-27T06:15:13.086Z,100866.19
2019-03-27T06:17:44.613Z,100859.79
2019-03-27T06:20:16.017Z,100852.07
2019-03-27T06:22:48.409Z,100852.34
2019-03-27T06:25:19.965Z,100856.16
2019-03-27T06:27:51.122Z,100865.39
2019-03-27T06:30:22.472Z,100869.38
2019-03-27T06:32:53.912Z,100863.94
2019-03-27T06:35:25.366Z,100858.17
2019-03-27T06:37:56.729Z,100863.55
2019-03-27T06:40:28.272Z,100862.36
2019-03-27T06:42:59.549Z,100861.42
2019-03-27T06:45:31.689Z,100861.05
2019-03-27T06:48:03.041Z,100864.25
2019-03-27T06:50:34.496Z,100858.64
2019-03-27T06:53:06.052Z,100862.59
2019-03-27T06:55:37.294Z,100861.99
2019-03-27T06:58:08.858Z,100861.40
2019-03-27T07:00:40.295Z,100865.84
2019-03-27T07:03:11.764Z,100862.41
2019-03-27T07:05:43.116Z,100862.48
2019-03-27T07:08:14.461Z,100864.64
2019-03-27T07:10:45.721Z,100865.89
2019-03-27T07:13:17.068Z,100866.25
2019-03-27T07:15:48.420Z,100871.86
2019-03-27T07:18:19.861Z,100873.05
2019-03-27T07:20:51.212Z,100870.41
2019-03-27T07:23:22.467Z,100871.46
2019-03-27T07:25:54.738Z,100866.16
2019-03-27T07:28:26.088Z,100861.05
2019-03-27T07:30:57.438Z,100869.11
2019-03-27T07:33:28.693Z,100868.00
2019-03-27T07:35:59.845Z,100870.43
2019-03-27T07:38:30.977Z,100869.63
2019-03-27T07:41:02.023Z,100870.52
2019-03-27T07:43:33.363Z,100871.00
2019-03-27T07:46:04.825Z,100877.48
2019-03-27T07:48:36.089Z,100874.25
2019-03-27T07:51:07.322Z,100884.08
2019-03-27T07:53:38.569Z,100877.48
2019-03-27T07:56:09.723Z,100871.76
2019-03-27T07:58:41.178Z,100874.13
2019-03-27T08:01:12.627Z,100863.00
2019-03-27T08:03:43.699Z,100862.38
2019-03-27T08:06:15.135Z,100861.31
2019-03-27T08:08:46.372Z,100865.10
2019-03-27T08:11:17.548Z,100865.42
2019-03-27T08:13:48.968Z,100861.16
2019-03-27T08:16:20.040Z,100861.55
2019-03-27T08:18:51.250Z,100861.26
2019-03-27T08:21:22.598Z,100857.89
2019-03-27T08:23:53.856Z,100859.78
2019-03-27T08:26:25.210Z,100860.55
2019-03-27T08:28:56.464Z,100859.47
2019-03-27T08:31:27.915Z,100862.05
2019-03-27T08:33:59.363Z,100864.59
2019-03-27T08:36:30.717Z,100861.47
2019-03-27T08:39:02.280Z,100866.18
2019-03-27T08:41:35.880Z,100863.55
2019-03-27T08:44:07.019Z,100863.47
2019-03-27T08:46:38.472Z,100873.53
2019-03-27T08:49:21.258Z,100867.64
2019-03-27T08:51:43.014Z,100882.86
2019-03-27T08:54:14.267Z,100888.25
2019-03-27T08:56:45.344Z,100877.08
2019-03-27T08:59:16.556Z,100878.70
2019-03-27T09:01:47.703Z,100884.25
2019-03-27T09:04:19.261Z,100874.77
2019-03-27T09:06:50.201Z,100877.33
2019-03-27T09:09:21.860Z,100872.34
2019-03-27T09:11:53.413Z,100870.66
2019-03-27T09:14:24.669Z,100873.73
2019-03-27T09:16:56.417Z,100879.41
2019-03-27T09:19:35.731Z,100877.84
2019-03-27T09:22:01.275Z,100872.22
2019-03-27T09:24:32.549Z,100872.22
2019-03-27T09:27:04.082Z,100870.14
2019-03-27T09:29:35.432Z,100871.63
2019-03-27T09:32:06.735Z,100866.10
2019-03-27T09:34:38.644Z,100870.87
2019-03-27T09:37:10.084Z,100863.57
2019-03-27T09:39:41.725Z,100864.20
2019-03-27T09:42:13.298Z,100875.03
2019-03-27T09:44:44.851Z,100875.13
2019-03-27T09:47:16.832Z,100869.19
2019-03-27T09:49:49.795Z,100867.39
2019-03-27T09:52:21.591Z,100876.75
2019-03-27T09:54:53.337Z,100871.58
2019-03-27T09:57:25.100Z,100871.69
2019-03-27T09:59:57.063Z,100862.39
2019-03-27T10:02:28.512Z,100865.57
2019-03-27T10:05:00.231Z,100860.67
2019-03-27T10:07:31.831Z,100862.69
2019-03-27T10:10:03.490Z,100861.70
2019-03-27T10:12:34.943Z,100871.13
2019-03-27T10:15:09.783Z,100859.62
2019-03-27T10:17:41.123Z,100861.74
2019-03-27T10:20:13.804Z,100855.80
2019-03-27T10:22:45.261Z,100855.82
2019-03-27T10:25:17.931Z,100857.61
2019-03-27T10:27:49.600Z,100854.91
2019-03-27T10:30:21.683Z,100851.26
2019-03-27T10:32:53.316Z,100852.30
2019-03-27T10:35:25.082Z,100850.39
2019-03-27T10:37:56.943Z,100846.97
2019-03-27T10:40:28.513Z,100845.81
2019-03-27T10:43:00.185Z,100840.52
2019-03-27T10:45:32.029Z,100840.08
2019-03-27T10:48:03.686Z,100834.27
2019-03-27T10:50:35.541Z,100838.54
2019-03-27T10:53:07.304Z,100837.47
2019-03-27T10:55:38.859Z,100834.89
2019-03-27T10:58:10.622Z,100832.84
2019-03-27T11:00:42.488Z,100826.56
2019-03-27T11:03:14.142Z,100830.37
2019-03-27T11:05:45.693Z,100830.84
2019-03-27T11:08:17.365Z,100825.73
2019-03-27T11:10:49.010Z,100829.70
2019-03-27T11:13:20.783Z,100825.73
2019-03-27T11:15:52.436Z,100821.47
2019-03-27T11:18:24.191Z,100824.61
2019-03-27T11:20:55.665Z,100825.56
2019-03-27T11:23:28.525Z,100822.10
2019-03-27T11:26:00.101Z,100817.32
2019-03-27T11:28:31.842Z,100817.52
2019-03-27T11:31:03.707Z,100817.61
2019-03-27T11:33:35.038Z,100812.22
2019-03-27T11:36:06.604Z,100813.44
2019-03-27T11:38:38.265Z,100811.41
2019-03-27T11:41:12.245Z,100811.92
2019-03-27T11:43:54.089Z,100813.20
2019-03-27T11:46:16.560Z,100814.88
2019-03-27T11:48:48.389Z,100807.41
2019-03-27T11:51:20.141Z,100809.56
2019-03-27T11:53:51.608Z,100815.41
2019-03-27T11:56:23.286Z,100812.83
2019-03-27T11:58:54.919Z,100815.08
2019-03-27T12:01:39.350Z,100814.34
2019-03-27T12:03:59.977Z,100814.69
2019-03-27T12:06:31.729Z,100817.02
2019-03-27T12:09:04.793Z,100819.78
2019-03-27T12:11:36.167Z,100824.30
2019-03-27T12:14:07.814Z,100827.64
2019-03-27T12:16:39.495Z,100844.35
2019-03-27T12:19:11.130Z,100849.75
2019-03-27T12:21:43.010Z,100857.27
2019-03-27T12:24:14.553Z,100857.58
2019-03-27T12:26:46.226Z,100873.83
2019-03-27T12:29:18.265Z,100870.77
2019-03-27T12:31:50.157Z,100873.77
2019-03-27T12:34:22.012Z,100878.02
2019-03-27T12:36:53.578Z,100878.59
2019-03-27T12:39:25.111Z,100877.98
2019-03-27T12:41:56.871Z,100882.88
2019-03-27T12:44:28.429Z,100889.22
2019-03-27T12:47:00.197Z,100886.06
2019-03-27T12:49:31.754Z,100891.73
2019-03-27T12:52:05.529Z,100886.73
2019-03-27T12:54:36.396Z,100893.31
2019-03-27T12:57:08.059Z,100894.44
2019-03-27T12:59:40.017Z,100888.30
2019-03-27T13:02:11.576Z,100900.41
2019-03-27T13:04:43.224Z,100896.95
2019-03-27T13:07:15.402Z,100902.58
2019-03-27T13:09:46.966Z,100906.35
2019-03-27T13:12:18.721Z,100909.55
2019-03-27T13:14:50.599Z,100906.14
2019-03-27T13:17:22.337Z,100907.91
2019-03-27T13:19:54.222Z,100920.67
2019-03-27T13:22:25.880Z,100919.47
2019-03-27T13:24:57.623Z,100917.09
2019-03-27T13:27:29.077Z,100925.25
2019-03-27T13:30:00.730Z,100927.06
2019-03-27T13:32:32.274Z,100924.39
2019-03-27T13:35:05.997Z,100924.56
2019-03-27T13:37:37.559Z,100928.93
2019-03-27T13:40:09.208Z,100932.11
2019-03-27T13:42:40.863Z,100934.66
2019-03-27T13:45:12.518Z,100927.93
2019-03-27T13:47:44.279Z,100931.60
2019-03-27T13:50:16.866Z,100935.88
2019-03-27T13:52:48.233Z,100934.66
2019-03-27T13:55:19.968Z,100942.89
2019-03-27T13:57:51.938Z,100948.69
2019-03-27T14:00:23.797Z,100946.24
2019-03-27T14:02:55.259Z,100948.31
2019-03-27T14:05:26.907Z,100947.38
2019-03-27T14:07:58.494Z,100947.55
2019-03-27T14:10:30.536Z,100950.52
2019-03-27T14:13:02.398Z,100953.41
2019-03-27T14:15:33.863Z,100954.66
2019-03-27T14:18:05.717Z,100949.23
2019-03-27T14:20:37.263Z,100957.98
2019-03-27T14:23:08.927Z,100957.85
2019-03-27T14:25:40.675Z,100961.27
2019-03-27T14:28:12.446Z,100963.54
2019-03-27T14:30:49.012Z,100967.73
2019-03-27T14:33:20.750Z,100964.84
2019-03-27T14:35:52.085Z,100969.92
2019-03-27T14:38:23.781Z,100974.27
2019-03-27T14:40:55.643Z,100978.83
2019-03-27T14:43:27.402Z,100982.19
2019-03-27T14:45:59.375Z,100982.44
2019-03-27T14:48:30.826Z,100982.30
2019-03-27T14:51:03.508Z,100987.44
2019-03-27T14:53:35.368Z,100980.16
2019-03-27T14:56:06.818Z,100988.59
2019-03-27T14:58:38.298Z,100988.14
2019-03-27T15:01:10.137Z,100988.69
2019-03-27T15:03:41.720Z,100990.61
2019-03-27T15:06:13.349Z,101001.80
2019-03-27T15:08:44.819Z,101006.69
2019-03-27T15:11:16.363Z,101005.60
2019-03-27T15:13:48.328Z,101004.92
2019-03-27T15:16:19.987Z,100998.27
2019-03-27T15:18:52.677Z,101005.36
2019-03-27T15:21:24.270Z,101011.19
2019-03-27T15:23:55.905Z,101013.69
2019-03-27T15:26:27.634Z,101007.19
2019-03-27T15:28:59.607Z,101009.52
2019-03-27T15:31:31.060Z,101011.78
2019-03-27T15:34:02.708Z,101020.31
2019-03-27T15:36:34.283Z,101016.67
2019-03-27T15:39:07.542Z,101023.38
2019-03-27T15:41:38.871Z,101027.08
2019-03-27T15:44:10.474Z,101022.04
2019-03-27T15:46:42.028Z,101026.52
2019-03-27T15:49:13.575Z,101028.22
2019-03-27T15:51:45.339Z,101030.58
2019-03-27T15:54:17.006Z,101030.70
2019-03-27T15:56:48.963Z,101034.08
2019-03-27T15:59:20.621Z,101029.03
2019-03-27T16:01:52.489Z,101037.08
2019-03-27T16:04:24.079Z,101035.86
2019-03-27T16:06:57.023Z,101038.27
2019-03-27T16:09:28.688Z,101045.20
2019-03-27T16:12:00.342Z,101041.42
2019-03-27T16:14:32.003Z,101046.10
2019-03-27T16:17:13.199Z,101047.40
2019-03-27T16:19:37.156Z,101046.38
2019-03-27T16:22:08.921Z,101052.50
2019-03-27T16:24:40.585Z,101060.05
2019-03-27T16:27:12.538Z,101059.25
2019-03-27T16:29:44.011Z,101058.11
2019-03-27T16:32:15.653Z,101067.27
2019-03-27T16:34:47.306Z,101068.32
2019-03-27T16:37:19.076Z,101075.30
2019-03-27T16:39:50.520Z,101077.94
2019-03-27T16:42:22.208Z,101083.55
2019-03-27T16:44:53.739Z,101086.93
2019-03-27T16:47:25.298Z,101085.22
2019-03-27T16:49:57.057Z,101093.54
2019-03-27T16:52:28.619Z,101092.24
2019-03-27T16:55:00.358Z,101094.13
2019-03-27T16:57:31.926Z,101096.61
2019-03-27T17:00:04.614Z,101099.98
2019-03-27T17:02:36.365Z,101103.36
2019-03-27T17:05:07.916Z,101103.73
2019-03-27T17:07:39.584Z,101109.27
2019-03-27T17:10:11.848Z,101110.48
2019-03-27T17:12:43.301Z,101111.59
2019-03-27T17:15:15.063Z,101108.65
2019-03-27T17:17:46.829Z,101123.02
2019-03-27T17:20:18.690Z,101117.90
2019-03-27T17:22:50.543Z,101115.75
2019-03-27T17:25:22.012Z,101124.33
2019-03-27T17:27:55.751Z,101116.08
2019-03-27T17:30:26.692Z,101122.13
2019-03-27T17:32:58.235Z,101125.31
2019-03-27T17:35:29.761Z,101122.38
2019-03-27T17:38:01.518Z,101121.80
2019-03-27T17:40:32.910Z,101125.25
2019-03-27T17:43:04.646Z,101125.17
2019-03-27T17:45:36.379Z,101130.23
2019-03-27T17:48:08.263Z,101123.61
2019-03-27T17:50:39.811Z,101126.13
2019-03-27T17:53:11.570Z,101124.78
2019-03-27T17:55:43.427Z,101124.31
2019-03-27T17:58:15.048Z,101123.86
2019-03-27T18:00:49.240Z,101129.31
2019-03-27T18:03:32.625Z,101126.34
2019-03-27T18:06:03.989Z,101129.72
2019-03-27T18:08:35.139Z,101131.79
2019-03-27T18:11:08.100Z,101128.19
2019-03-27T18:13:39.666Z,101130.66
2019-03-27T18:16:11.236Z,101130.09
2019-03-27T18:18:42.775Z,101138.86
2019-03-27T18:21:14.571Z,101133.21
2019-03-27T18:23:46.850Z,101142.50
2019-03-27T18:26:18.670Z,101138.81
2019-03-27T18:28:50.333Z,101133.36
2019-03-27T18:31:21.783Z,101134.27
2019-03-27T18:33:53.237Z,101129.08
2019-03-27T18:36:26.028Z,101133.88
2019-03-27T18:38:57.681Z,101138.77
2019-03-27T18:41:29.448Z,101138.30
2019-03-27T18:44:03.228Z,101134.59
2019-03-27T18:46:34.392Z,101140.31
2019-03-27T18:49:06.050Z,101143.17
2019-03-27T18:51:37.813Z,101149.67
2019-03-27T18:54:09.569Z,101146.36
2019-03-27T18:56:41.059Z,101143.25
2019-03-27T18:59:12.991Z,101143.65
2019-03-27T19:01:44.756Z,101150.67
2019-03-27T19:04:16.306Z,101152.23
2019-03-27T19:06:47.851Z,101151.45
2019-03-27T19:09:19.846Z,101149.63
2019-03-27T19:11:51.483Z,101155.80
2019-03-27T19:14:22.940Z,101158.72
2019-03-27T19:16:54.590Z,101159.50
2019-03-27T19:19:26.343Z,101154.68
2019-03-27T19:21:58.115Z,101159.43
2019-03-27T19:24:29.693Z,101160.80
2019-03-27T19:27:01.430Z,101154.60
2019-03-27T19:29:34.009Z,101164.55
2019-03-27T19:32:05.403Z,101156.64
2019-03-27T19:34:37.228Z,101159.05
2019-03-27T19:37:08.987Z,101157.42
2019-03-27T19:39:41.873Z,101155.72
2019-03-27T19:42:14.349Z,101159.95
2019-03-27T19:44:45.719Z,101163.77
2019-03-27T19:47:17.455Z,101168.86
2019-03-27T19:49:49.315Z,101175.80
2019-03-27T19:52:20.872Z,101173.09
2019-03-27T19:54:52.642Z,101184.30
2019-03-27T19:57:24.285Z,101185.61
2019-03-27T19:59:56.042Z,101183.94
2019-03-27T20:02:27.603Z,101188.02
2019-03-27T20:04:59.264Z,101188.53
2019-03-27T20:07:36.229Z,101189.84
2019-03-27T20:10:59.782Z,101193.29
2019-03-27T20:13:46.696Z,101202.72
2019-03-27T20:16:18.345Z,101205.63
2019-03-27T20:18:50.111Z,101209.52
2019-03-27T20:21:21.503Z,101216.42
2019-03-27T20:23:53.117Z,101213.75
2019-03-27T20:27:10.227Z,101217.84
2019-03-27T20:29:41.975Z,101216.17
2019-03-27T20:32:13.525Z,101218.25
2019-03-27T20:34:45.285Z,101222.66
2019-03-27T20:37:16.848Z,101222.86
2019-03-27T20:39:48.605Z,101224.30
2019-03-27T20:42:20.261Z,101225.90
2019-03-27T20:45:07.266Z,101227.80
2019-03-27T20:47:38.723Z,101240.09
2019-03-27T20:50:10.175Z,101243.61
2019-03-27T20:52:41.534Z,101243.87
2019-03-27T20:55:12.976Z,101248.15
2019-03-27T20:57:44.330Z,101252.38
2019-03-27T21:00:16.298Z,101254.05
2019-03-27T21:02:47.647Z,101256.61
2019-03-27T21:05:18.893Z,101257.25
2019-03-27T21:07:50.247Z,101260.70
2019-03-27T21:10:21.494Z,101262.52
2019-03-27T21:12:52.947Z,101263.90
2019-03-27T21:15:24.402Z,101271.03
2019-03-27T21:17:55.755Z,101275.34
2019-03-27T21:20:27.416Z,101274.86
2019-03-27T21:22:58.689Z,101279.50
2019-03-27T21:25:30.113Z,101275.56
2019-03-27T21:28:01.258Z,101277.89
2019-03-27T21:30:32.707Z,101277.59
2019-03-27T21:33:03.960Z,101281.48
2019-03-27T21:35:35.514Z,101289.28
2019-03-27T21:38:06.962Z,101285.94
2019-03-27T21:40:38.164Z,101291.62
2019-03-27T21:43:09.450Z,101287.76
2019-03-27T21:45:40.816Z,101296.08
2019-03-27T21:48:12.478Z,101294.84
2019-03-27T21:50:44.026Z,101300.11
2019-03-27T21:53:15.480Z,101298.74
2019-03-27T21:55:46.728Z,101297.24
2019-03-27T21:58:18.166Z,101303.33
2019-03-27T22:00:49.643Z,101309.62
2019-03-27T22:03:20.988Z,101310.14
2019-03-27T22:05:52.443Z,101308.95
2019-03-27T22:08:25.021Z,101311.17
2019-03-27T22:10:56.292Z,101313.50
2019-03-27T22:13:27.824Z,101313.22
2019-03-27T22:16:00.202Z,101317.67
2019-03-27T22:18:31.549Z,101315.99
2019-03-27T22:21:03.078Z,101322.59
2019-03-27T22:23:34.451Z,101323.52
2019-03-27T22:26:05.701Z,101331.75
2019-03-27T22:28:37.356Z,101335.75
2019-03-27T22:31:08.916Z,101336.23
2019-03-27T22:33:40.263Z,101334.52
2019-03-27T22:36:11.621Z,101332.43
2019-03-27T22:38:43.274Z,101336.46
2019-03-27T22:41:14.418Z,101334.38
2019-03-27T22:43:45.878Z,101341.69
2019-03-27T22:46:17.015Z,101345.48
2019-03-27T22:48:48.369Z,101342.37
2019-03-27T22:51:19.614Z,101344.91
2019-03-27T22:53:51.083Z,101344.56
2019-03-27T22:56:22.523Z,101344.46
2019-03-27T22:58:53.772Z,101349.31
2019-03-27T23:01:25.227Z,101353.62
2019-03-27T23:03:56.680Z,101352.83
2019-03-27T23:06:27.931Z,101351.25
2019-03-27T23:08:59.181Z,101353.27
2019-03-27T23:11:30.633Z,101353.85
2019-03-27T23:14:01.981Z,101352.86
2019-03-27T23:16:33.349Z,101354.81
2019-03-27T23:19:04.578Z,101355.70
2019-03-27T23:21:35.924Z,101357.50
2019-03-27T23:24:07.281Z,101357.84
2019-03-27T23:26:38.826Z,101362.83
2019-03-27T23:29:10.289Z,101368.05
2019-03-27T23:31:41.642Z,101367.33
2019-03-27T23:34:13.004Z,101379.17
2019-03-27T23:36:44.445Z,101375.69
2019-03-27T23:39:15.683Z,101380.53
2019-03-27T23:41:47.151Z,101382.15
2019-03-27T23:44:18.600Z,101380.82
2019-03-27T23:46:49.854Z,101384.81
2019-03-27T23:49:21.223Z,101388.26
2019-03-27T23:51:52.753Z,101387.41
2019-03-27T23:54:24.015Z,101394.55
2019-03-27T23:56:55.342Z,101397.37
2019-03-27T23:59:26.612Z,101401.03
